Time;durP1;ratioP1;P1;durP2;ratioP2;P2;SDS_P1;SDS_P2;PMS_P1;PMS_P2;Temp;Humidity;BMP_temperature;BMP_pressure;BME280_temperature;BME280_humidity;BME280_pressure;Samples;Min_cycle;Max_cycle;Signal;HPM_P1;HPM_P2
2022/10/26 00:00:30;;;;;;;38.35;24.05;;;;;;;;;;5052399;28;20039;-73
2022/10/26 00:03:35;;;;;;;42.75;24.35;;;;;;;;;;5052370;28;20126;-73
2022/10/26 00:06:39;;;;;;;40.25;23.60;;;;;;;;;;5052066;28;20052;-74
2022/10/26 00:09:44;;;;;;;41.47;26.05;;;;;;;;;;5052025;28;20064;-74
2022/10/26 00:12:49;;;;;;;42.95;23.55;;;;;;;;;;5052647;28;20063;-73
2022/10/26 00:15:54;;;;;;;45.72;24.88;;;;;;;;;;5051991;28;20040;-74
2022/10/26 00:18:58;;;;;;;43.40;26.98;;;;;;;;;;5051855;28;20044;-74
2022/10/26 00:22:02;;;;;;;43.53;26.50;;;;;;;;;;5051269;28;20055;-74
2022/10/26 00:25:07;;;;;;;46.38;28.33;;;;;;;;;;5052018;28;20151;-74
2022/10/26 00:28:11;;;;;;;43.92;24.83;;;;;;;;;;5051646;28;20064;-74
2022/10/26 00:31:16;;;;;;;45.85;25.02;;;;;;;;;;5051587;28;20056;-74
2022/10/26 00:34:20;;;;;;;39.63;24.15;;;;;;;;;;5051986;28;20385;-74
2022/10/26 00:37:24;;;;;;;50.85;24.05;;;;;;;;;;5051933;28;20047;-73
2022/10/26 00:40:29;;;;;;;36.05;23.75;;;;;;;;;;5051805;28;20040;-74
2022/10/26 00:43:37;;;;;;;42.22;24.65;;;;;;;;;;5051584;28;20044;-74
2022/10/26 00:46:42;;;;;;;40.58;24.27;;;;;;;;;;5051592;28;20052;-74
2022/10/26 00:49:47;;;;;;;36.97;23.70;;;;;;;;;;5051265;28;20036;-74
2022/10/26 00:52:52;;;;;;;37.60;22.70;;;;;;;;;;5051478;28;20048;-73
2022/10/26 00:55:56;;;;;;;38.63;23.05;;;;;;;;;;5051529;28;20393;-73
2022/10/26 00:59:02;;;;;;;37.65;20.75;;;;;;;;;;5051269;28;20055;-74
2022/10/26 01:02:06;;;;;;;34.20;22.67;;;;;;;;;;5051297;28;20044;-74
2022/10/26 01:05:12;;;;;;;40.63;21.92;;;;;;;;;;5051326;28;20063;-74
2022/10/26 01:08:16;;;;;;;34.22;20.90;;;;;;;;;;5051203;28;20064;-73
2022/10/26 01:11:20;;;;;;;33.28;20.00;;;;;;;;;;5051161;28;20424;-74
2022/10/26 01:14:26;;;;;;;33.45;21.35;;;;;;;;;;5051227;28;20511;-73
2022/10/26 01:17:49;;;;;;;36.08;21.88;;;;;;;;;;5051056;28;20048;-73
2022/10/26 01:21:11;;;;;;;39.47;21.35;;;;;;;;;;5051052;28;20036;-74
2022/10/26 01:24:22;;;;;;;38.17;23.17;;;;;;;;;;5051217;28;20048;-73
2022/10/26 01:27:32;;;;;;;32.78;21.25;;;;;;;;;;5051318;28;20064;-73
2022/10/26 01:30:41;;;;;;;41.22;22.45;;;;;;;;;;5050578;28;20052;-74
2022/10/26 01:33:49;;;;;;;44.13;23.50;;;;;;;;;;5054225;28;20056;-73
2022/10/26 01:37:06;;;;;;;35.20;22.80;;;;;;;;;;5055355;28;20056;-73
2022/10/26 01:40:14;;;;;;;45.33;24.02;;;;;;;;;;5055254;28;20040;-74
2022/10/26 01:43:19;;;;;;;43.15;24.17;;;;;;;;;;5054289;28;20048;-74
2022/10/26 01:46:24;;;;;;;44.25;25.73;;;;;;;;;;5054878;28;20052;-74
2022/10/26 01:49:31;;;;;;;38.63;24.80;;;;;;;;;;5054494;28;20044;-73
2022/10/26 01:52:35;;;;;;;40.83;24.40;;;;;;;;;;5054687;28;20040;-73
2022/10/26 01:55:40;;;;;;;38.92;24.00;;;;;;;;;;5054722;28;20044;-74
2022/10/26 01:58:44;;;;;;;53.53;25.75;;;;;;;;;;5054344;28;20429;-74
2022/10/26 02:01:50;;;;;;;39.33;23.83;;;;;;;;;;5054807;28;20040;-73
2022/10/26 02:04:55;;;;;;;37.10;22.40;;;;;;;;;;5054568;28;20111;-73
2022/10/26 02:08:18;;;;;;;33.28;22.45;;;;;;;;;;5054363;28;20648;-74
2022/10/26 02:11:42;;;;;;;32.70;21.73;;;;;;;;;;5054483;28;20052;-74
2022/10/26 02:14:52;;;;;;;43.28;22.13;;;;;;;;;;5055069;28;20401;-73
2022/10/26 02:17:59;;;;;;;41.28;22.15;;;;;;;;;;5054203;28;20040;-73
2022/10/26 02:21:15;;;;;;;34.03;20.42;;;;;;;;;;5054292;28;20040;-74
2022/10/26 02:24:21;;;;;;;32.72;20.65;;;;;;;;;;5054297;28;20294;-74
2022/10/26 02:27:27;;;;;;;36.72;20.73;;;;;;;;;;5053998;28;20060;-74
2022/10/26 02:30:32;;;;;;;38.08;22.55;;;;;;;;;;5052784;28;20065;-73
2022/10/26 02:33:41;;;;;;;35.28;21.48;;;;;;;;;;5054202;28;20068;-74
2022/10/26 02:36:47;;;;;;;33.90;22.20;;;;;;;;;;5053980;28;20040;-74
2022/10/26 02:39:52;;;;;;;34.35;21.08;;;;;;;;;;5053818;28;20052;-73
2022/10/26 02:42:59;;;;;;;38.45;21.05;;;;;;;;;;5053888;28;20044;-73
2022/10/26 02:46:07;;;;;;;33.50;20.55;;;;;;;;;;5063956;28;20044;-73
2022/10/26 02:49:12;;;;;;;36.63;21.67;;;;;;;;;;5053716;28;20048;-73
2022/10/26 02:52:35;;;;;;;41.75;20.52;;;;;;;;;;5053655;28;20048;-73
2022/10/26 02:55:42;;;;;;;39.25;19.63;;;;;;;;;;5053360;28;20115;-73
2022/10/26 02:58:49;;;;;;;32.47;20.05;;;;;;;;;;5053401;28;20044;-74
2022/10/26 03:01:53;;;;;;;31.38;18.65;;;;;;;;;;5053240;28;20420;-73
2022/10/26 03:05:07;;;;;;;35.03;19.45;;;;;;;;;;5053521;28;20401;-73
2022/10/26 03:08:11;;;;;;;35.20;19.15;;;;;;;;;;5053294;28;20048;-73
2022/10/26 03:11:16;;;;;;;32.58;18.80;;;;;;;;;;5053182;28;20036;-73
2022/10/26 03:14:20;;;;;;;29.02;18.42;;;;;;;;;;5053374;28;20048;-73
2022/10/26 03:17:25;;;;;;;34.72;19.58;;;;;;;;;;5053605;28;20040;-73
2022/10/26 03:20:29;;;;;;;34.67;19.95;;;;;;;;;;5053135;28;20068;-73
2022/10/26 03:23:33;;;;;;;36.75;19.50;;;;;;;;;;5052862;28;20036;-73
2022/10/26 03:26:38;;;;;;;35.67;20.48;;;;;;;;;;5053034;28;20424;-73
2022/10/26 03:29:42;;;;;;;38.47;18.92;;;;;;;;;;5052086;28;20389;-74
2022/10/26 03:32:49;;;;;;;35.45;17.92;;;;;;;;;;5052884;28;20068;-73
2022/10/26 03:35:55;;;;;;;36.30;18.08;;;;;;;;;;5053120;28;20048;-74
2022/10/26 03:38:59;;;;;;;38.28;18.85;;;;;;;;;;5052778;28;20047;-73
2022/10/26 03:42:04;;;;;;;31.67;18.40;;;;;;;;;;5052643;28;20040;-73
2022/10/26 03:45:08;;;;;;;41.90;22.05;;;;;;;;;;5052827;28;20047;-74
2022/10/26 03:48:13;;;;;;;44.88;27.42;;;;;;;;;;5052295;28;20056;-73
2022/10/26 03:51:17;;;;;;;39.63;24.73;;;;;;;;;;5052251;28;20149;-73
2022/10/26 03:54:21;;;;;;;40.03;21.40;;;;;;;;;;5052578;28;20063;-73
2022/10/26 03:57:26;;;;;;;47.03;25.73;;;;;;;;;;5051286;28;20048;-73
2022/10/26 04:00:30;;;;;;;46.20;26.40;;;;;;;;;;5052307;28;20048;-73
2022/10/26 04:03:34;;;;;;;51.30;27.38;;;;;;;;;;5052170;28;20040;-74
2022/10/26 04:06:39;;;;;;;51.60;27.83;;;;;;;;;;5062858;28;20052;-72
2022/10/26 04:09:43;;;;;;;48.63;25.92;;;;;;;;;;5051849;28;20507;-73
2022/10/26 04:12:47;;;;;;;47.35;23.85;;;;;;;;;;5052131;28;20040;-73
2022/10/26 04:15:52;;;;;;;40.05;24.25;;;;;;;;;;5052272;28;20064;-72
2022/10/26 04:18:56;;;;;;;51.17;22.85;;;;;;;;;;5051889;28;20036;-73
2022/10/26 04:22:01;;;;;;;37.88;22.85;;;;;;;;;;5051954;28;20048;-72
2022/10/26 04:25:06;;;;;;;37.65;22.17;;;;;;;;;;5051875;28;20036;-73
2022/10/26 04:28:10;;;;;;;39.25;21.15;;;;;;;;;;5051507;28;20059;-73
2022/10/26 04:31:15;;;;;;;45.28;22.00;;;;;;;;;;5051839;28;20056;-74
2022/10/26 04:34:19;;;;;;;47.25;22.80;;;;;;;;;;5051806;28;20039;-73
2022/10/26 04:37:23;;;;;;;43.28;26.25;;;;;;;;;;5051496;28;20130;-72
2022/10/26 04:40:28;;;;;;;56.38;26.38;;;;;;;;;;5051469;28;20504;-72
2022/10/26 04:43:32;;;;;;;40.67;21.40;;;;;;;;;;5051810;28;20036;-72
2022/10/26 04:46:37;;;;;;;38.08;24.20;;;;;;;;;;5051262;28;20404;-72
2022/10/26 04:49:41;;;;;;;49.70;20.40;;;;;;;;;;5051200;28;20195;-72
2022/10/26 04:56:12;;;;;;;42.47;19.67;;;;;;;;;;5051221;28;20063;-72
2022/10/26 04:59:16;;;;;;;41.08;21.08;;;;;;;;;;5051353;28;20384;-74
2022/10/26 05:02:20;;;;;;;46.55;21.85;;;;;;;;;;5051344;28;20047;-74
2022/10/26 05:05:24;;;;;;;37.40;20.95;;;;;;;;;;5051532;28;20388;-74
2022/10/26 05:08:29;;;;;;;41.45;22.17;;;;;;;;;;5050885;28;20094;-72
2022/10/26 05:11:33;;;;;;;44.08;22.35;;;;;;;;;;5050903;28;20040;-74
2022/10/26 05:14:37;;;;;;;43.83;23.45;;;;;;;;;;5051059;28;20127;-74
2022/10/26 05:17:42;;;;;;;42.90;22.20;;;;;;;;;;5050879;28;20139;-74
2022/10/26 05:20:48;;;;;;;35.25;21.15;;;;;;;;;;5050943;28;20033;-73
2022/10/26 05:23:54;;;;;;;48.75;21.63;;;;;;;;;;5051143;28;20052;-74
2022/10/26 05:26:58;;;;;;;45.75;23.20;;;;;;;;;;5050662;28;20057;-73
2022/10/26 05:30:03;;;;;;;49.70;23.85;;;;;;;;;;5050686;28;20094;-73
2022/10/26 05:33:09;;;;;;;37.00;21.20;;;;;;;;;;5050764;28;20056;-73
2022/10/26 05:36:13;;;;;;;56.55;23.48;;;;;;;;;;5050888;28;20104;-73
2022/10/26 05:39:18;;;;;;;61.70;23.60;;;;;;;;;;5050681;28;20052;-74
2022/10/26 05:42:24;;;;;;;45.75;23.20;;;;;;;;;;5050806;28;20044;-68
2022/10/26 05:45:28;;;;;;;49.20;27.00;;;;;;;;;;5050754;28;20377;-68
2022/10/26 05:48:32;;;;;;;59.45;25.63;;;;;;;;;;5050900;28;20396;-69
2022/10/26 05:51:38;;;;;;;66.47;22.58;;;;;;;;;;5050575;28;20032;-69
2022/10/26 05:54:42;;;;;;;54.67;21.80;;;;;;;;;;5061420;28;20060;-68
2022/10/26 05:57:47;;;;;;;53.50;22.45;;;;;;;;;;5050503;28;20389;-68
2022/10/26 06:01:10;;;;;;;54.25;22.88;;;;;;;;;;5050345;28;20051;-69
2022/10/26 06:04:14;;;;;;;53.00;23.50;;;;;;;;;;5061274;28;20048;-69
2022/10/26 06:07:19;;;;;;;69.90;28.13;;;;;;;;;;5050500;28;20051;-69
2022/10/26 06:10:24;;;;;;;72.30;27.85;;;;;;;;;;5050442;28;20385;-70
2022/10/26 06:13:28;;;;;;;56.33;24.38;;;;;;;;;;5050550;28;20048;-69
2022/10/26 06:16:41;;;;;;;69.63;24.48;;;;;;;;;;5050174;28;20392;-71
2022/10/26 06:19:52;;;;;;;76.13;25.77;;;;;;;;;;5051373;28;20040;-71
2022/10/26 06:23:05;;;;;;;73.82;23.23;;;;;;;;;;5054341;28;20044;-68
2022/10/26 06:26:16;;;;;;;105.97;25.02;;;;;;;;;;5054132;28;20040;-70
2022/10/26 06:29:35;;;;;;;155.63;27.70;;;;;;;;;;5052860;28;20048;-69
2022/10/26 06:32:40;;;;;;;122.28;25.48;;;;;;;;;;5053480;28;20059;-70
2022/10/26 06:36:04;;;;;;;110.03;25.60;;;;;;;;;;5053595;28;20059;-70
2022/10/26 06:39:10;;;;;;;66.47;23.95;;;;;;;;;;5055731;28;20417;-69
2022/10/26 06:42:14;;;;;;;63.80;22.98;;;;;;;;;;5053695;28;20314;-72
2022/10/26 06:45:19;;;;;;;66.68;23.55;;;;;;;;;;5053540;28;20048;-72
2022/10/26 06:48:24;;;;;;;62.42;24.55;;;;;;;;;;5053120;28;20519;-70
2022/10/26 06:51:30;;;;;;;64.93;24.67;;;;;;;;;;5053462;28;20044;-70
2022/10/26 06:54:48;;;;;;;51.85;24.20;;;;;;;;;;5053560;28;20048;-69
2022/10/26 06:57:53;;;;;;;70.30;24.83;;;;;;;;;;5052652;28;20064;-70
2022/10/26 07:00:57;;;;;;;75.38;26.77;;;;;;;;;;5053038;28;20048;-71
2022/10/26 07:04:01;;;;;;;63.78;30.80;;;;;;;;;;5053525;28;20048;-71
2022/10/26 07:07:05;;;;;;;76.45;34.50;;;;;;;;;;5053134;28;20048;-71
2022/10/26 07:10:11;;;;;;;80.93;33.53;;;;;;;;;;5053595;28;20052;-71
2022/10/26 07:13:15;;;;;;;81.43;35.70;;;;;;;;;;5053231;28;20039;-72
2022/10/26 07:16:21;;;;;;;79.13;34.17;;;;;;;;;;5053437;28;20040;-71
2022/10/26 07:19:25;;;;;;;82.20;37.72;;;;;;;;;;5053326;28;20040;-71
2022/10/26 07:22:30;;;;;;;76.75;35.55;;;;;;;;;;5052529;28;20067;-71
2022/10/26 07:25:37;;;;;;;86.55;34.22;;;;;;;;;;5051839;28;20044;-71
2022/10/26 07:28:42;;;;;;;103.47;38.33;;;;;;;;;;5052904;28;20056;-71
2022/10/26 07:31:46;;;;;;;93.25;35.95;;;;;;;;;;5051980;28;20044;-71
2022/10/26 07:34:51;;;;;;;96.63;34.97;;;;;;;;;;5063606;28;20507;-71
2022/10/26 07:37:56;;;;;;;97.70;36.67;;;;;;;;;;5052651;28;20040;-71
2022/10/26 07:41:01;;;;;;;100.55;34.95;;;;;;;;;;5052792;28;20044;-72
2022/10/26 07:44:06;;;;;;;100.88;35.63;;;;;;;;;;5052780;28;20397;-71
2022/10/26 07:47:10;;;;;;;92.53;35.35;;;;;;;;;;5052089;28;20063;-71
2022/10/26 07:50:14;;;;;;;79.68;33.22;;;;;;;;;;5051687;28;20048;-71
2022/10/26 07:53:18;;;;;;;90.40;38.10;;;;;;;;;;5052477;28;20048;-71
2022/10/26 07:56:23;;;;;;;73.85;33.13;;;;;;;;;;5052271;28;20417;-71
2022/10/26 07:59:27;;;;;;;80.38;34.72;;;;;;;;;;5062864;28;20064;-71
2022/10/26 08:02:32;;;;;;;88.57;36.22;;;;;;;;;;5052423;28;20048;-71
2022/10/26 08:05:36;;;;;;;84.55;37.10;;;;;;;;;;5052058;28;20397;-71
2022/10/26 08:08:40;;;;;;;88.20;34.92;;;;;;;;;;5051076;28;20147;-71
2022/10/26 08:11:44;;;;;;;86.22;36.35;;;;;;;;;;5062642;28;20048;-71
2022/10/26 08:14:49;;;;;;;84.65;37.15;;;;;;;;;;5052084;28;20043;-71
2022/10/26 08:17:53;;;;;;;83.85;34.88;;;;;;;;;;5051882;28;20047;-71
2022/10/26 08:21:02;;;;;;;80.53;36.58;;;;;;;;;;5051994;28;20048;-72
2022/10/26 08:24:07;;;;;;;69.18;32.63;;;;;;;;;;5051809;28;20048;-71
2022/10/26 08:27:11;;;;;;;65.28;29.50;;;;;;;;;;5051811;28;20060;-72
2022/10/26 08:30:15;;;;;;;56.38;29.50;;;;;;;;;;5051504;28;20048;-71
2022/10/26 08:33:20;;;;;;;61.00;29.30;;;;;;;;;;5051610;28;20048;-73
2022/10/26 08:36:25;;;;;;;53.63;27.90;;;;;;;;;;5051698;28;20515;-73
2022/10/26 08:39:29;;;;;;;60.25;29.67;;;;;;;;;;5051204;28;20047;-71
2022/10/26 08:42:45;;;;;;;50.00;26.02;;;;;;;;;;5051006;28;20032;-71
2022/10/26 08:46:03;;;;;;;58.40;30.60;;;;;;;;;;5051761;28;20396;-71
2022/10/26 08:49:33;;;;;;;56.72;28.70;;;;;;;;;;5051413;28;20055;-71
2022/10/26 08:52:37;;;;;;;42.67;22.52;;;;;;;;;;5046309;28;20048;-71
2022/10/26 08:55:47;;;;;;;49.92;29.15;;;;;;;;;;5051384;28;20040;-70
2022/10/26 08:59:00;;;;;;;56.72;33.10;;;;;;;;;;5051003;28;20043;-70
2022/10/26 09:02:11;;;;;;;64.85;33.75;;;;;;;;;;5050194;28;20044;-70
2022/10/26 09:05:16;;;;;;;71.43;35.78;;;;;;;;;;5051040;28;20377;-70
2022/10/26 09:08:29;;;;;;;44.30;26.65;;;;;;;;;;5050747;28;20064;-70
2022/10/26 09:11:36;;;;;;;42.97;24.13;;;;;;;;;;5050100;28;20401;-70
2022/10/26 09:14:42;;;;;;;47.13;27.35;;;;;;;;;;5061506;28;20051;-70
2022/10/26 09:18:05;;;;;;;50.88;30.38;;;;;;;;;;5050618;28;20048;-70
2022/10/26 09:21:23;;;;;;;35.53;24.38;;;;;;;;;;5050948;28;20043;-70
2022/10/26 09:24:31;;;;;;;39.05;24.30;;;;;;;;;;5051200;28;20067;-70
2022/10/26 09:27:40;;;;;;;34.63;21.73;;;;;;;;;;5050641;28;20048;-70
2022/10/26 09:30:45;;;;;;;58.08;33.10;;;;;;;;;;5050433;28;20052;-70
2022/10/26 09:33:51;;;;;;;44.13;26.00;;;;;;;;;;5050952;28;20079;-70
2022/10/26 09:36:55;;;;;;;31.95;21.38;;;;;;;;;;5050577;28;20044;-70
2022/10/26 09:40:18;;;;;;;38.33;24.75;;;;;;;;;;5050460;28;20048;-73
2022/10/26 09:43:26;;;;;;;56.58;30.60;;;;;;;;;;5050833;28;20048;-70
2022/10/26 09:46:50;;;;;;;35.53;23.60;;;;;;;;;;5050609;28;20064;-72
2022/10/26 09:50:14;;;;;;;44.80;24.85;;;;;;;;;;5050607;28;20400;-72
2022/10/26 09:53:18;;;;;;;38.35;23.20;;;;;;;;;;5051268;28;20052;-72
2022/10/26 09:56:22;;;;;;;38.17;24.98;;;;;;;;;;5054878;28;20044;-72
2022/10/26 09:59:26;;;;;;;44.10;25.50;;;;;;;;;;5054016;28;20056;-72
2022/10/26 10:02:35;;;;;;;32.17;22.38;;;;;;;;;;5054748;28;20047;-72
2022/10/26 10:05:40;;;;;;;47.92;27.20;;;;;;;;;;5054191;28;20044;-73
2022/10/26 10:09:03;;;;;;;38.10;24.33;;;;;;;;;;5054167;28;20523;-70
2022/10/26 10:12:17;;;;;;;38.72;24.30;;;;;;;;;;5054308;28;20044;-71
2022/10/26 10:15:23;;;;;;;58.63;32.47;;;;;;;;;;5053200;28;20387;-71
2022/10/26 10:18:27;;;;;;;47.95;27.50;;;;;;;;;;5053896;28;20048;-74
2022/10/26 10:21:39;;;;;;;55.78;28.92;;;;;;;;;;5053052;28;20052;-74
2022/10/26 10:25:05;;;;;;;39.38;26.90;;;;;;;;;;5053747;28;20048;-77
2022/10/26 10:28:21;;;;;;;75.75;32.10;;;;;;;;;;5054000;28;20056;-74
2022/10/26 10:31:29;;;;;;;43.53;24.63;;;;;;;;;;5052765;28;20432;-75
2022/10/26 10:34:34;;;;;;;54.63;29.45;;;;;;;;;;5053113;28;20040;-72
2022/10/26 10:37:44;;;;;;;47.15;29.08;;;;;;;;;;5053549;28;20452;-74
2022/10/26 10:40:50;;;;;;;51.90;26.52;;;;;;;;;;5053790;28;20107;-76
2022/10/26 10:43:57;;;;;;;49.53;25.88;;;;;;;;;;5052683;28;20036;-75
2022/10/26 10:47:06;;;;;;;40.53;22.45;;;;;;;;;;5053369;28;20060;-77
2022/10/26 10:50:13;;;;;;;34.00;21.20;;;;;;;;;;5053734;28;20055;-76
2022/10/26 10:53:22;;;;;;;34.47;21.55;;;;;;;;;;5052854;28;20048;-77
2022/10/26 10:56:40;;;;;;;33.42;21.08;;;;;;;;;;5053782;28;20079;-73
2022/10/26 10:59:48;;;;;;;66.97;30.13;;;;;;;;;;5053138;28;20048;-74
2022/10/26 11:03:05;;;;;;;53.13;25.75;;;;;;;;;;5052656;28;20060;-74
2022/10/26 11:06:15;;;;;;;61.13;29.10;;;;;;;;;;5063510;28;20040;-76
2022/10/26 11:09:24;;;;;;;44.40;25.80;;;;;;;;;;5053272;28;20055;-76
2022/10/26 11:12:34;;;;;;;44.92;24.95;;;;;;;;;;5052293;28;20048;-75
2022/10/26 11:15:39;;;;;;;43.80;24.52;;;;;;;;;;5053264;28;20048;-75
2022/10/26 11:18:46;;;;;;;37.88;20.08;;;;;;;;;;5052153;28;20056;-75
2022/10/26 11:21:53;;;;;;;44.15;23.15;;;;;;;;;;5052330;28;20068;-73
2022/10/26 11:25:00;;;;;;;58.20;26.67;;;;;;;;;;5053032;28;20424;-72
2022/10/26 11:28:11;;;;;;;32.72;19.48;;;;;;;;;;5052746;28;20059;-72
2022/10/26 11:31:22;;;;;;;38.97;20.48;;;;;;;;;;5052726;28;20072;-75
2022/10/26 11:34:31;;;;;;;43.15;22.58;;;;;;;;;;5052976;28;20111;-75
2022/10/26 11:37:44;;;;;;;35.75;19.83;;;;;;;;;;5052834;28;20507;-75
2022/10/26 11:40:57;;;;;;;44.22;20.35;;;;;;;;;;5052706;28;20059;-74
2022/10/26 11:44:01;;;;;;;34.15;18.92;;;;;;;;;;5052727;28;20047;-74
2022/10/26 11:47:14;;;;;;;38.00;20.67;;;;;;;;;;5052256;28;20059;-74
2022/10/26 11:50:22;;;;;;;66.13;26.75;;;;;;;;;;5052348;28;20048;-74
2022/10/26 11:53:31;;;;;;;46.38;25.23;;;;;;;;;;5052359;28;20044;-74
2022/10/26 11:56:41;;;;;;;58.30;28.45;;;;;;;;;;5052148;28;20039;-74
2022/10/26 11:59:49;;;;;;;41.78;22.48;;;;;;;;;;5052460;28;20048;-74
2022/10/26 12:02:56;;;;;;;40.67;22.85;;;;;;;;;;5051907;28;20068;-75
2022/10/26 12:06:01;;;;;;;33.90;20.77;;;;;;;;;;5052190;28;20028;-73
2022/10/26 12:09:12;;;;;;;36.15;22.02;;;;;;;;;;5051010;28;20420;-74
2022/10/26 12:12:37;;;;;;;56.30;28.70;;;;;;;;;;5052374;28;20040;-74
2022/10/26 12:15:42;;;;;;;57.17;25.77;;;;;;;;;;5051280;28;20048;-73
2022/10/26 12:19:00;;;;;;;53.65;26.00;;;;;;;;;;5051336;28;20052;-71
2022/10/26 12:22:08;;;;;;;60.85;27.83;;;;;;;;;;5051718;28;20065;-72
2022/10/26 12:25:15;;;;;;;42.13;24.73;;;;;;;;;;5051740;28;20040;-71
2022/10/26 12:28:39;;;;;;;37.47;19.77;;;;;;;;;;5051377;28;20048;-72
2022/10/26 12:31:43;;;;;;;68.18;27.65;;;;;;;;;;5051324;28;20063;-72
2022/10/26 12:34:53;;;;;;;50.08;26.05;;;;;;;;;;5051696;28;20299;-72
2022/10/26 12:37:58;;;;;;;37.15;21.38;;;;;;;;;;5051304;28;20036;-74
2022/10/26 12:41:05;;;;;;;45.00;21.65;;;;;;;;;;5051456;28;20052;-73
2022/10/26 12:44:29;;;;;;;41.42;22.92;;;;;;;;;;5051188;28;20499;-71
2022/10/26 12:47:34;;;;;;;37.25;20.70;;;;;;;;;;5051153;28;20389;-69
2022/10/26 12:50:38;;;;;;;47.50;22.33;;;;;;;;;;5051565;28;20052;-70
2022/10/26 12:53:43;;;;;;;58.90;24.00;;;;;;;;;;5051035;28;20040;-74
2022/10/26 12:56:47;;;;;;;48.47;23.75;;;;;;;;;;5051465;28;20479;-72
2022/10/26 13:00:00;;;;;;;37.72;20.60;;;;;;;;;;5051229;28;20048;-73
2022/10/26 13:03:23;;;;;;;44.83;21.02;;;;;;;;;;5050873;28;20424;-73
2022/10/26 13:06:41;;;;;;;50.65;22.13;;;;;;;;;;5051270;28;20056;-75
2022/10/26 13:09:49;;;;;;;45.72;19.50;;;;;;;;;;5050891;28;20524;-73
2022/10/26 13:12:55;;;;;;;38.83;20.40;;;;;;;;;;5051054;28;20044;-75
2022/10/26 13:16:00;;;;;;;41.22;19.45;;;;;;;;;;5051118;28;20063;-74
2022/10/26 13:19:04;;;;;;;49.63;20.33;;;;;;;;;;5050761;28;20040;-73
2022/10/26 13:22:14;;;;;;;42.08;18.70;;;;;;;;;;5050279;28;20044;-73
2022/10/26 13:25:24;;;;;;;43.53;18.90;;;;;;;;;;5051259;28;20104;-73
2022/10/26 13:28:31;;;;;;;43.88;18.55;;;;;;;;;;5050556;28;20071;-74
2022/10/26 13:31:40;;;;;;;39.72;18.70;;;;;;;;;;5050626;28;20052;-73
2022/10/26 13:34:44;;;;;;;53.33;19.88;;;;;;;;;;5049978;28;20052;-73
2022/10/26 13:37:50;;;;;;;51.15;19.98;;;;;;;;;;5050797;28;20048;-73
2022/10/26 13:40:59;;;;;;;70.75;22.33;;;;;;;;;;5050553;28;20044;-73
2022/10/26 13:44:05;;;;;;;44.42;17.60;;;;;;;;;;5050785;28;20063;-73
2022/10/26 13:47:28;;;;;;;34.08;18.25;;;;;;;;;;5050731;28;20191;-73
2022/10/26 13:50:51;;;;;;;44.20;18.27;;;;;;;;;;5050465;28;20056;-73
2022/10/26 13:54:04;;;;;;;63.75;21.38;;;;;;;;;;5050223;28;20400;-73
2022/10/26 13:57:11;;;;;;;44.97;19.42;;;;;;;;;;5050301;28;20065;-73
2022/10/26 14:00:17;;;;;;;40.97;17.48;;;;;;;;;;5050224;28;20044;-73
2022/10/26 14:03:21;;;;;;;38.50;17.77;;;;;;;;;;5050620;28;20044;-73
2022/10/26 14:06:31;;;;;;;49.33;19.55;;;;;;;;;;5050488;28;20044;-73
2022/10/26 14:09:35;;;;;;;57.35;20.48;;;;;;;;;;5050331;28;20483;-73
2022/10/26 14:12:39;;;;;;;36.15;17.58;;;;;;;;;;5050444;28;20438;-73
2022/10/26 14:15:45;;;;;;;32.63;16.52;;;;;;;;;;5050360;28;20060;-73
2022/10/26 14:18:49;;;;;;;48.08;18.83;;;;;;;;;;5049794;28;20566;-80
2022/10/26 14:21:54;;;;;;;36.05;16.17;;;;;;;;;;5049260;28;20044;-72
2022/10/26 14:24:59;;;;;;;40.20;17.88;;;;;;;;;;5050213;28;20059;-77
2022/10/26 14:28:19;;;;;;;37.53;16.95;;;;;;;;;;5050236;28;20044;-73
2022/10/26 14:31:31;;;;;;;45.47;17.13;;;;;;;;;;5050353;28;20048;-72
2022/10/26 14:34:38;;;;;;;72.55;19.13;;;;;;;;;;5050585;28;20048;-70
2022/10/26 14:37:43;;;;;;;56.55;16.65;;;;;;;;;;5050372;28;20515;-70
2022/10/26 14:40:48;;;;;;;38.70;15.57;;;;;;;;;;5051774;28;20056;-73
2022/10/26 14:43:54;;;;;;;50.20;17.35;;;;;;;;;;5053834;28;20048;-72
2022/10/26 14:46:59;;;;;;;54.85;17.48;;;;;;;;;;5052867;28;20059;-71
2022/10/26 14:50:03;;;;;;;44.22;17.05;;;;;;;;;;5053342;28;20052;-76
2022/10/26 14:53:14;;;;;;;49.47;16.80;;;;;;;;;;5053728;28;20397;-76
2022/10/26 14:56:39;;;;;;;41.33;16.67;;;;;;;;;;5053626;28;20071;-71
2022/10/26 14:59:43;;;;;;;30.63;14.63;;;;;;;;;;5052245;28;20044;-71
2022/10/26 15:02:49;;;;;;;37.55;13.35;;;;;;;;;;5052841;28;20064;-71
2022/10/26 15:05:53;;;;;;;25.58;13.20;;;;;;;;;;5063742;28;20052;-71
2022/10/26 15:09:03;;;;;;;31.33;15.02;;;;;;;;;;5063938;28;20056;-71
2022/10/26 15:12:17;;;;;;;38.55;16.02;;;;;;;;;;5053237;28;20064;-71
2022/10/26 15:15:23;;;;;;;28.02;14.25;;;;;;;;;;5053152;28;20063;-71
2022/10/26 15:18:32;;;;;;;30.23;14.75;;;;;;;;;;5053215;28;20051;-71
2022/10/26 15:21:40;;;;;;;51.80;17.98;;;;;;;;;;5052982;28;20040;-71
2022/10/26 15:24:50;;;;;;;45.45;16.42;;;;;;;;;;5053167;28;20416;-71
2022/10/26 15:27:54;;;;;;;36.22;15.35;;;;;;;;;;5052781;28;20073;-71
2022/10/26 15:31:13;;;;;;;31.40;14.23;;;;;;;;;;5053119;28;20047;-71
2022/10/26 15:34:22;;;;;;;55.03;18.42;;;;;;;;;;5052814;28;20045;-71
2022/10/26 15:37:27;;;;;;;31.40;15.15;;;;;;;;;;5053083;28;20044;-75
2022/10/26 15:40:32;;;;;;;34.25;18.65;;;;;;;;;;5052826;28;20040;-71
2022/10/26 15:43:37;;;;;;;42.65;19.42;;;;;;;;;;5052623;28;20396;-72
2022/10/26 15:46:42;;;;;;;43.58;24.38;;;;;;;;;;5051482;28;20203;-72
2022/10/26 15:49:46;;;;;;;36.38;21.45;;;;;;;;;;5052227;28;20056;-72
2022/10/26 15:52:55;;;;;;;29.85;19.17;;;;;;;;;;5052180;28;20065;-72
2022/10/26 15:56:00;;;;;;;67.13;27.45;;;;;;;;;;5051367;28;20068;-72
2022/10/26 15:59:05;;;;;;;46.42;26.60;;;;;;;;;;5050901;28;20040;-72
2022/10/26 16:02:16;;;;;;;45.83;26.05;;;;;;;;;;5063053;28;20052;-70
2022/10/26 16:05:20;;;;;;;36.88;23.30;;;;;;;;;;5053029;28;20036;-71
2022/10/26 16:08:26;;;;;;;34.97;22.80;;;;;;;;;;5052658;28;20040;-71
2022/10/26 16:11:30;;;;;;;43.30;26.00;;;;;;;;;;5052564;28;20051;-72
2022/10/26 16:14:34;;;;;;;41.85;26.10;;;;;;;;;;5052137;28;20060;-71
2022/10/26 16:17:38;;;;;;;50.78;27.00;;;;;;;;;;5052004;28;20048;-72
2022/10/26 16:20:45;;;;;;;54.95;27.00;;;;;;;;;;5051829;28;20047;-71
2022/10/26 16:23:50;;;;;;;47.72;26.50;;;;;;;;;;5051518;28;20048;-71
2022/10/26 16:26:54;;;;;;;44.88;27.83;;;;;;;;;;5051686;28;20039;-71
2022/10/26 16:29:58;;;;;;;49.45;28.00;;;;;;;;;;5051869;28;20389;-71
2022/10/26 16:33:03;;;;;;;58.83;29.85;;;;;;;;;;5052503;28;20056;-74
2022/10/26 16:36:09;;;;;;;72.07;32.60;;;;;;;;;;5051742;28;20396;-72
2022/10/26 16:39:14;;;;;;;66.32;30.88;;;;;;;;;;5051361;28;20043;-71
2022/10/26 16:42:18;;;;;;;59.30;29.25;;;;;;;;;;5051051;28;20404;-75
2022/10/26 16:45:22;;;;;;;50.90;28.77;;;;;;;;;;5050710;28;20046;-71
2022/10/26 16:48:27;;;;;;;59.10;28.55;;;;;;;;;;5061706;28;20064;-73
2022/10/26 16:51:31;;;;;;;66.03;30.08;;;;;;;;;;5050812;28;20048;-71
2022/10/26 16:54:35;;;;;;;59.28;27.35;;;;;;;;;;5051589;28;20400;-70
2022/10/26 16:57:40;;;;;;;54.67;26.13;;;;;;;;;;5051641;28;20063;-71
2022/10/26 17:00:44;;;;;;;50.45;20.73;;;;;;;;;;5051386;28;20044;-69
2022/10/26 17:03:49;;;;;;;52.80;20.15;;;;;;;;;;5050877;28;20048;-72
2022/10/26 17:06:54;;;;;;;59.97;17.75;;;;;;;;;;5050881;28;20067;-72
2022/10/26 17:09:58;;;;;;;54.38;19.45;;;;;;;;;;5050987;28;20397;-72
2022/10/26 17:13:03;;;;;;;44.58;15.57;;;;;;;;;;5050481;28;20349;-71
2022/10/26 17:16:09;;;;;;;52.88;17.88;;;;;;;;;;5050716;28;20044;-68
2022/10/26 17:19:14;;;;;;;40.70;15.82;;;;;;;;;;5051140;28;20389;-72
2022/10/26 17:22:18;;;;;;;58.30;16.25;;;;;;;;;;5050733;28;20052;-74
2022/10/26 17:25:22;;;;;;;50.15;16.92;;;;;;;;;;5050087;28;20044;-73
2022/10/26 17:28:26;;;;;;;56.95;17.60;;;;;;;;;;5061350;28;20052;-73
2022/10/26 17:31:31;;;;;;;53.97;17.02;;;;;;;;;;5050766;28;20511;-73
2022/10/26 17:34:35;;;;;;;46.40;18.08;;;;;;;;;;5050927;28;20048;-73
2022/10/26 17:37:39;;;;;;;56.78;18.83;;;;;;;;;;5051249;28;20051;-73
2022/10/26 17:40:44;;;;;;;63.90;20.10;;;;;;;;;;5050740;28;20389;-73
2022/10/26 17:43:49;;;;;;;49.58;18.15;;;;;;;;;;5050602;28;20401;-73
2022/10/26 17:46:53;;;;;;;59.20;21.20;;;;;;;;;;5049827;28;20040;-73
2022/10/26 17:49:57;;;;;;;69.32;24.15;;;;;;;;;;5050546;28;20049;-73
2022/10/26 17:53:01;;;;;;;70.88;27.35;;;;;;;;;;5061113;28;20527;-73
2022/10/26 17:56:14;;;;;;;54.67;25.42;;;;;;;;;;5050369;28;20396;-73
2022/10/26 17:59:18;;;;;;;67.93;28.23;;;;;;;;;;5050843;28;20036;-73
2022/10/26 18:02:23;;;;;;;69.43;28.20;;;;;;;;;;5050830;28;20431;-75
2022/10/26 18:05:31;;;;;;;72.15;27.25;;;;;;;;;;5050562;28;20512;-73
2022/10/26 18:08:35;;;;;;;76.78;29.20;;;;;;;;;;5050260;28;20056;-74
2022/10/26 18:11:40;;;;;;;65.45;29.20;;;;;;;;;;5049945;28;20048;-75